createdAt,value
2019-01-24T00:04:25.371Z,0.46
2019-01-24T00:10:20.391Z,0.63
2019-01-24T00:16:15.420Z,0.51
2019-01-24T00:22:10.353Z,0.42
2019-01-24T00:28:05.377Z,0.48
2019-01-24T00:34:00.388Z,0.55
2019-01-24T00:39:55.390Z,0.57
2019-01-24T00:45:50.390Z,0.49
2019-01-24T00:51:45.412Z,0.62
2019-01-24T00:57:40.375Z,0.54
2019-01-24T01:03:35.415Z,0.47
2019-01-24T01:09:34.386Z,0.52
2019-01-24T01:15:25.491Z,0.5
2019-01-24T01:21:20.522Z,0.53
2019-01-24T01:27:15.389Z,0.55
2019-01-24T01:33:10.419Z,0.42
2019-01-24T01:39:07.455Z,0.59
2019-01-24T01:45:00.490Z,0.55
2019-01-24T01:50:55.402Z,0.62
2019-01-24T01:56:50.485Z,0.64
2019-01-24T02:02:45.426Z,0.47
2019-01-24T02:08:40.472Z,0.53
2019-01-24T02:14:35.438Z,0.52
2019-01-24T02:20:30.451Z,0.66
2019-01-24T02:26:25.492Z,0.6
2019-01-24T02:32:20.425Z,0.58
2019-01-24T02:38:15.441Z,0.58
2019-01-24T02:44:10.452Z,0.61
2019-01-24T02:50:05.454Z,0.46
2019-01-24T02:56:00.441Z,0.74
2019-01-24T03:01:55.440Z,0.54
2019-01-24T03:07:50.464Z,0.61
2019-01-24T03:13:45.460Z,0.59
2019-01-24T03:19:40.447Z,0.62
2019-01-24T03:25:35.458Z,0.56
2019-01-24T03:31:30.460Z,0.66
2019-01-24T03:37:25.466Z,0.5
2019-01-24T03:43:20.463Z,0.75
2019-01-24T03:49:15.466Z,0.49
2019-01-24T03:55:10.500Z,0.57
2019-01-24T04:01:05.470Z,0.54
2019-01-24T04:07:00.480Z,0.62
2019-01-24T04:12:55.471Z,0.61
2019-01-24T04:18:50.502Z,0.71
2019-01-24T04:24:45.478Z,0.72
2019-01-24T04:30:40.501Z,0.65
2019-01-24T04:36:36.032Z,0.75
2019-01-24T04:42:30.523Z,1
2019-01-24T04:48:25.527Z,0.92
2019-01-24T04:54:20.504Z,1.02
2019-01-24T05:00:15.509Z,0.79
2019-01-24T05:06:10.493Z,1
2019-01-24T05:12:05.498Z,1.07
2019-01-24T05:18:00.513Z,0.98
2019-01-24T05:23:55.517Z,0.98
2019-01-24T05:29:50.550Z,1.2
2019-01-24T05:35:45.518Z,1.33
2019-01-24T05:41:40.540Z,1.18
2019-01-24T05:47:35.578Z,1.45
2019-01-24T05:53:30.576Z,1.34
2019-01-24T05:59:25.534Z,1.33
2019-01-24T06:05:20.534Z,1.4
2019-01-24T06:11:15.534Z,1.49
2019-01-24T06:17:10.645Z,1.61
2019-01-24T06:23:05.532Z,1.73
2019-01-24T06:29:02.885Z,2.3
2019-01-24T06:34:55.589Z,1.74
2019-01-24T06:40:50.526Z,1.92
2019-01-24T06:46:45.592Z,2.23
2019-01-24T06:52:40.587Z,2.65
2019-01-24T06:58:35.592Z,1.9
2019-01-24T07:04:30.577Z,2.54
2019-01-24T07:10:25.582Z,2.66
2019-01-24T07:16:20.580Z,1.96
2019-01-24T07:22:15.565Z,3
2019-01-24T07:28:10.634Z,2.77
2019-01-24T07:34:05.572Z,2.58
2019-01-24T07:40:00.568Z,2.85
2019-01-24T07:45:55.577Z,2.27
2019-01-24T07:51:50.566Z,3.37
2019-01-24T07:57:45.622Z,2.79
2019-01-24T08:03:40.626Z,3.12
2019-01-24T08:09:35.655Z,2.79
2019-01-24T08:15:30.597Z,3.13
2019-01-24T08:21:25.601Z,2.62
2019-01-24T08:27:20.594Z,2.95
2019-01-24T08:33:15.589Z,2.09
2019-01-24T08:39:10.614Z,2.7
2019-01-24T08:45:05.613Z,3.58
2019-01-24T08:51:00.598Z,3.93
2019-01-24T08:56:55.612Z,3.45
2019-01-24T09:02:50.615Z,5.34
2019-01-24T09:08:45.623Z,4.05
2019-01-24T09:14:40.618Z,4.5
2019-01-24T09:20:35.629Z,8.25
2019-01-24T09:26:31.609Z,7.31
2019-01-24T09:32:25.636Z,8.6
2019-01-24T09:38:20.643Z,6.86
2019-01-24T09:44:17.688Z,6.13
2019-01-24T09:50:10.640Z,5.17
2019-01-24T09:56:05.661Z,5.13
2019-01-24T10:02:00.646Z,7.06
2019-01-24T10:07:55.680Z,4.56
2019-01-24T10:13:50.640Z,7.67
2019-01-24T10:19:45.681Z,7.45
2019-01-24T10:25:40.642Z,7.51
2019-01-24T10:31:35.657Z,6.11
2019-01-24T10:37:30.654Z,6.03
2019-01-24T10:43:25.683Z,4.36
2019-01-24T10:49:20.660Z,6.87
2019-01-24T10:55:15.669Z,8.39
2019-01-24T11:01:10.693Z,8.03
2019-01-24T11:07:05.705Z,7.7
2019-01-24T11:13:00.681Z,7.22
2019-01-24T11:18:55.720Z,9.7
2019-01-24T11:24:50.741Z,9.84
2019-01-24T11:30:45.699Z,7.84
2019-01-24T11:36:40.695Z,7.96
2019-01-24T11:42:35.680Z,5.21
2019-01-24T11:48:30.719Z,6.85
2019-01-24T11:54:25.736Z,4.98
2019-01-24T12:00:20.710Z,7.24
2019-01-24T12:06:15.727Z,4.94
2019-01-24T12:12:10.757Z,5.75
2019-01-24T12:18:05.715Z,4.31
2019-01-24T12:24:00.729Z,6.15
2019-01-24T12:29:55.771Z,5.48
2019-01-24T12:35:50.707Z,5.32
2019-01-24T12:41:45.742Z,8.53
2019-01-24T12:47:40.895Z,7.06
2019-01-24T12:53:35.731Z,3.9
2019-01-24T12:59:30.768Z,8.57
2019-01-24T13:05:25.736Z,6.47
2019-01-24T13:11:20.750Z,4.97
2019-01-24T13:17:15.762Z,9.76
2019-01-24T13:23:10.751Z,8.45
2019-01-24T13:29:05.789Z,9.71
2019-01-24T13:35:00.788Z,8.09
2019-01-24T13:40:55.780Z,9.24
2019-01-24T13:46:50.779Z,7.64
2019-01-24T13:52:45.790Z,8.38
2019-01-24T13:58:40.786Z,9.59
2019-01-24T14:04:35.819Z,7.98
2019-01-24T14:10:30.783Z,7.4
2019-01-24T14:16:27.846Z,7.43
2019-01-24T14:22:20.786Z,8.02
2019-01-24T14:28:15.822Z,10
2019-01-24T14:34:10.804Z,10.43
2019-01-24T14:40:05.804Z,6.99
2019-01-24T14:46:00.816Z,7.57
2019-01-24T14:51:55.803Z,7.3
2019-01-24T14:57:50.819Z,6.68
2019-01-24T15:03:45.836Z,8.12
2019-01-24T15:09:40.790Z,6.68
2019-01-24T15:15:35.851Z,7.86
2019-01-24T15:21:30.810Z,7.76
2019-01-24T15:27:27.881Z,9.76
2019-01-24T15:39:17.082Z,11.34
2019-01-24T15:39:17.093Z,11.34
2019-01-24T15:45:10.823Z,9.66
2019-01-24T15:57:00.866Z,5.52
2019-01-24T16:02:55.871Z,6.36
2019-01-24T16:08:50.913Z,7.18
2019-01-24T16:14:45.822Z,6.99
2019-01-24T16:20:40.848Z,10.64
2019-01-24T16:26:37.299Z,6.58
2019-01-24T16:32:30.845Z,6.37
2019-01-24T16:38:26.386Z,8.67
2019-01-24T16:44:20.870Z,5.64
2019-01-24T16:50:15.844Z,5.63
2019-01-24T16:56:10.894Z,5.54
2019-01-24T17:02:05.866Z,7.87
2019-01-24T17:08:00.868Z,7.68
2019-01-24T17:13:55.860Z,7.57
2019-01-24T17:19:50.860Z,9.51
2019-01-24T17:25:45.947Z,8.58
2019-01-24T17:31:40.890Z,3.97
2019-01-24T17:37:35.879Z,8.56
2019-01-24T17:43:30.870Z,10.2
2019-01-24T17:49:25.895Z,8.15
2019-01-24T17:55:20.919Z,11.33
2019-01-24T18:01:15.940Z,8.93
2019-01-24T18:07:10.900Z,23.46
2019-01-24T18:13:05.906Z,9.47
2019-01-24T18:19:00.887Z,8.42
2019-01-24T18:24:57.118Z,8.39
2019-01-24T18:30:50.919Z,9.45
2019-01-24T18:36:45.890Z,8.75
2019-01-24T18:42:40.918Z,11.23
2019-01-24T18:48:35.924Z,9.06
2019-01-24T18:54:30.954Z,9.04
2019-01-24T19:00:25.954Z,8.6
2019-01-24T19:06:20.923Z,6.62
2019-01-24T19:12:15.994Z,7.89
2019-01-24T19:18:10.930Z,7.65
2019-01-24T19:24:05.989Z,5.87
2019-01-24T19:30:00.943Z,6.57
2019-01-24T19:36:00.181Z,7.32
2019-01-24T19:41:50.974Z,7.35
2019-01-24T19:47:45.940Z,5.44
2019-01-24T19:53:40.994Z,4.82
2019-01-24T19:59:35.981Z,6.75
2019-01-24T20:05:30.969Z,4.92
2019-01-24T20:11:25.952Z,4.12
2019-01-24T20:17:20.950Z,7.13
2019-01-24T20:23:15.980Z,7.84
2019-01-24T20:29:10.966Z,4.55
2019-01-24T20:35:05.976Z,4.53
2019-01-24T20:41:00.974Z,6.44
2019-01-24T20:46:55.979Z,7.08
2019-01-24T20:52:50.976Z,6.33
2019-01-24T20:58:45.976Z,7.14
2019-01-24T21:04:41.002Z,5.71
2019-01-24T21:10:36.066Z,6.24
2019-01-24T21:16:30.994Z,7.74
2019-01-24T21:22:25.983Z,7.62
2019-01-24T21:28:20.997Z,8.4
2019-01-24T21:34:16.003Z,5.11
2019-01-24T21:40:11.024Z,7.66
2019-01-24T21:46:05.991Z,9.16
2019-01-24T21:52:01.036Z,9.02
2019-01-24T21:57:56.012Z,8.37
2019-01-24T22:03:51.037Z,7.81
2019-01-24T22:09:46.023Z,9.25
2019-01-24T22:15:41.022Z,9.82
2019-01-24T22:21:36.140Z,9.78
2019-01-24T22:27:31.077Z,9.91
2019-01-24T22:33:26.025Z,10.16
2019-01-24T22:39:21.030Z,10.89
2019-01-24T22:45:16.028Z,9.27
2019-01-24T22:51:11.062Z,9.35
2019-01-24T22:57:06.045Z,10.26
2019-01-24T23:03:01.053Z,8.98
2019-01-24T23:08:56.101Z,8.43
2019-01-24T23:14:51.073Z,10.61
2019-01-24T23:20:46.102Z,8.79
2019-01-24T23:26:41.053Z,10.88
2019-01-24T23:32:36.055Z,11.3
2019-01-24T23:38:31.088Z,8.36
2019-01-24T23:44:26.052Z,6.51
2019-01-24T23:50:21.100Z,12.04
2019-01-24T23:56:16.071Z,11.67
